createdAt,value
2022-10-25T00:01:31.784Z,12.40
2022-10-25T00:04:00.410Z,12.30
2022-10-25T00:06:29.141Z,12.30
2022-10-25T00:08:57.804Z,12.40
2022-10-25T00:11:28.444Z,12.40
2022-10-25T00:13:59.791Z,12.50
2022-10-25T00:16:31.913Z,12.60
2022-10-25T00:19:00.539Z,12.60
2022-10-25T00:21:29.144Z,12.60
2022-10-25T00:23:57.752Z,12.60
2022-10-25T00:26:26.355Z,12.60
2022-10-25T00:28:56.262Z,12.60
2022-10-25T00:31:25.361Z,12.50
2022-10-25T00:33:55.470Z,12.50
2022-10-25T00:36:25.556Z,12.50
2022-10-25T00:38:54.408Z,12.60
2022-10-25T00:41:25.802Z,12.70
2022-10-25T00:43:56.536Z,12.80
2022-10-25T00:46:29.048Z,12.90
2022-10-25T00:49:02.554Z,12.90
2022-10-25T00:51:35.794Z,13.00
2022-10-25T00:54:04.501Z,13.00
2022-10-25T00:56:37.093Z,13.00
2022-10-25T00:59:09.294Z,13.10
2022-10-25T01:01:39.177Z,13.10
2022-10-25T01:04:13.164Z,13.10
2022-10-25T01:06:44.713Z,13.20
2022-10-25T01:09:18.239Z,13.30
2022-10-25T01:11:47.092Z,13.30
2022-10-25T01:14:18.017Z,13.30
2022-10-25T01:16:53.584Z,13.20
2022-10-25T01:20:05.288Z,13.10
2022-10-25T01:22:39.329Z,13.00
2022-10-25T01:25:28.083Z,13.10
2022-10-25T01:28:10.485Z,13.00
2022-10-25T01:31:07.483Z,13.10
2022-10-25T01:33:41.588Z,13.20
2022-10-25T01:36:15.783Z,13.20
2022-10-25T01:38:49.801Z,13.20
2022-10-25T01:41:26.068Z,13.20
2022-10-25T01:44:05.877Z,13.20
2022-10-25T01:46:44.498Z,13.20
2022-10-25T01:49:18.775Z,13.30
2022-10-25T01:51:47.365Z,13.30
2022-10-25T01:54:21.521Z,13.30
2022-10-25T01:57:01.773Z,13.30
2022-10-25T01:59:47.607Z,13.30
2022-10-25T02:02:24.833Z,13.30
2022-10-25T02:05:03.770Z,13.20
2022-10-25T02:07:38.808Z,13.20
2022-10-25T02:10:12.409Z,13.20
2022-10-25T02:12:49.731Z,13.20
2022-10-25T02:15:23.603Z,13.20
2022-10-25T02:17:58.774Z,13.20
2022-10-25T02:20:29.591Z,13.30
2022-10-25T02:23:00.081Z,13.30
2022-10-25T02:25:30.463Z,13.40
2022-10-25T02:28:01.668Z,13.30
2022-10-25T02:30:33.400Z,13.30
2022-10-25T02:33:03.858Z,13.20
2022-10-25T02:35:32.894Z,13.20
2022-10-25T02:38:03.847Z,13.20
2022-10-25T02:40:32.650Z,13.20
2022-10-25T02:43:01.319Z,13.20
2022-10-25T02:45:29.890Z,13.30
2022-10-25T02:47:58.484Z,13.30
2022-10-25T02:50:28.453Z,13.30
2022-10-25T02:52:57.107Z,13.40
2022-10-25T02:55:25.808Z,13.40
2022-10-25T02:57:54.328Z,13.50
2022-10-25T03:00:23.056Z,13.50
2022-10-25T03:02:51.644Z,13.50
2022-10-25T03:05:20.246Z,13.60
2022-10-25T03:07:50.224Z,13.60
2022-10-25T03:10:18.878Z,13.70
2022-10-25T03:12:47.766Z,13.70
2022-10-25T03:15:16.626Z,13.70
2022-10-25T03:17:46.195Z,13.80
2022-10-25T03:20:15.827Z,13.80
2022-10-25T03:22:44.415Z,13.80
2022-10-25T03:25:14.544Z,13.80
2022-10-25T03:27:43.627Z,13.90
2022-10-25T03:30:14.682Z,13.80
2022-10-25T03:32:43.341Z,13.80
2022-10-25T03:35:11.916Z,13.80
2022-10-25T03:37:40.517Z,13.80
2022-10-25T03:40:10.323Z,13.80
2022-10-25T03:42:40.293Z,13.80
2022-10-25T03:45:09.451Z,13.90
2022-10-25T03:47:38.391Z,13.80
2022-10-25T03:50:08.751Z,13.80
2022-10-25T03:52:37.305Z,13.80
2022-10-25T03:55:06.826Z,13.70
2022-10-25T03:57:35.798Z,13.70
2022-10-25T04:00:06.841Z,13.70
2022-10-25T04:02:35.438Z,13.70
2022-10-25T04:05:04.185Z,13.70
2022-10-25T04:07:32.802Z,13.70
2022-10-25T04:10:01.451Z,13.70
2022-10-25T04:12:30.129Z,13.70
2022-10-25T04:14:58.806Z,13.60
2022-10-25T04:17:29.094Z,13.60
2022-10-25T04:19:57.708Z,13.60
2022-10-25T04:22:26.325Z,13.60
2022-10-25T04:24:55.042Z,13.60
2022-10-25T04:27:23.623Z,13.70
2022-10-25T04:29:52.168Z,13.70
2022-10-25T04:32:20.922Z,13.70
2022-10-25T04:34:51.070Z,13.60
2022-10-25T04:37:19.629Z,13.60
2022-10-25T04:39:48.162Z,13.70
2022-10-25T04:42:17.664Z,13.70
2022-10-25T04:44:46.405Z,13.70
2022-10-25T04:47:15.391Z,13.70
2022-10-25T04:49:44.239Z,13.70
2022-10-25T04:52:14.355Z,13.70
2022-10-25T04:54:43.115Z,13.70
2022-10-25T04:57:11.718Z,13.70
2022-10-25T04:59:40.347Z,13.70
2022-10-25T05:02:09.029Z,13.70
2022-10-25T05:04:37.584Z,13.70
2022-10-25T05:07:06.128Z,13.60
2022-10-25T05:09:36.221Z,13.60
2022-10-25T05:12:05.134Z,13.60
2022-10-25T05:14:33.755Z,13.60
2022-10-25T05:17:02.308Z,13.50
2022-10-25T05:19:31.661Z,13.60
2022-10-25T05:22:00.252Z,13.60
2022-10-25T05:24:28.802Z,13.50
2022-10-25T05:26:58.855Z,13.50
2022-10-25T05:29:27.741Z,13.50
2022-10-25T05:31:56.421Z,13.50
2022-10-25T05:34:25.148Z,13.60
2022-10-25T05:36:53.806Z,13.60
2022-10-25T05:39:22.540Z,13.60
2022-10-25T05:41:51.204Z,13.50
2022-10-25T05:44:21.138Z,13.50
2022-10-25T05:46:50.619Z,13.50
2022-10-25T05:49:19.372Z,13.40
2022-10-25T05:51:47.953Z,13.40
2022-10-25T05:54:17.110Z,13.50
2022-10-25T05:56:49.581Z,13.40
2022-10-25T05:59:18.383Z,13.40
2022-10-25T06:01:48.545Z,13.50
2022-10-25T06:04:18.380Z,13.50
2022-10-25T06:06:48.620Z,13.40
2022-10-25T06:09:18.790Z,13.40
2022-10-25T06:11:47.545Z,13.40
2022-10-25T06:14:16.321Z,13.40
2022-10-25T06:16:45.554Z,13.40
2022-10-25T06:19:15.864Z,13.40
2022-10-25T06:21:47.183Z,13.40
2022-10-25T06:24:16.147Z,13.30
2022-10-25T06:26:45.200Z,13.40
2022-10-25T06:29:18.754Z,13.40
2022-10-25T06:31:47.503Z,13.40
2022-10-25T06:34:17.606Z,13.30
2022-10-25T06:36:46.174Z,13.30
2022-10-25T06:39:15.399Z,13.30
2022-10-25T06:41:44.181Z,13.40
2022-10-25T06:44:13.249Z,13.40
2022-10-25T06:47:15.213Z,13.50
2022-10-25T06:49:34.397Z,13.50
2022-10-25T06:52:02.932Z,13.60
2022-10-25T06:54:31.503Z,13.60
2022-10-25T06:57:00.046Z,13.60
2022-10-25T06:59:28.707Z,13.50
2022-10-25T07:01:57.559Z,13.60
2022-10-25T07:04:26.241Z,13.60
2022-10-25T07:06:56.255Z,13.60
2022-10-25T07:09:26.501Z,13.70
2022-10-25T07:11:55.251Z,13.60
2022-10-25T07:14:23.907Z,13.70
2022-10-25T07:16:52.781Z,13.70
2022-10-25T07:19:22.755Z,13.70
2022-10-25T07:21:51.686Z,13.70
2022-10-25T07:24:21.677Z,13.70
2022-10-25T07:26:50.207Z,13.80
2022-10-25T07:29:19.087Z,13.80
2022-10-25T07:31:47.752Z,13.80
2022-10-25T07:34:17.457Z,13.70
2022-10-25T07:36:46.094Z,13.60
2022-10-25T07:39:17.543Z,13.60
2022-10-25T07:41:47.534Z,13.60
2022-10-25T07:44:19.239Z,13.60
2022-10-25T07:46:50.309Z,13.70
2022-10-25T07:49:19.223Z,13.80
2022-10-25T07:51:47.854Z,13.80
2022-10-25T07:54:16.638Z,13.80
2022-10-25T07:56:47.266Z,13.70
2022-10-25T07:59:16.154Z,13.60
2022-10-25T08:01:47.785Z,13.70
2022-10-25T08:04:16.464Z,13.70
2022-10-25T08:06:45.511Z,13.90
2022-10-25T08:09:36.839Z,14.00
2022-10-25T08:12:06.467Z,14.10
2022-10-25T08:14:38.135Z,14.10
2022-10-25T08:17:09.651Z,14.10
2022-10-25T08:19:38.754Z,14.10
2022-10-25T08:22:07.334Z,14.10
2022-10-25T08:24:36.149Z,14.10
2022-10-25T08:27:06.065Z,14.20
2022-10-25T08:29:34.661Z,14.30
2022-10-25T08:32:03.442Z,14.20
2022-10-25T08:34:33.214Z,14.10
2022-10-25T08:37:01.985Z,14.10
2022-10-25T08:39:30.654Z,14.10
2022-10-25T08:42:00.679Z,14.20
2022-10-25T08:44:41.521Z,14.30
2022-10-25T08:47:15.498Z,14.40
2022-10-25T08:49:52.740Z,14.50
2022-10-25T08:52:27.435Z,14.60
2022-10-25T08:55:00.400Z,14.70
2022-10-25T08:57:35.149Z,14.80
2022-10-25T09:00:10.676Z,14.90
2022-10-25T09:02:44.124Z,14.80
2022-10-25T09:05:18.958Z,14.70
2022-10-25T09:08:06.619Z,14.70
2022-10-25T09:10:58.503Z,14.70
2022-10-25T09:13:39.507Z,14.90
2022-10-25T09:16:17.041Z,15.10
2022-10-25T09:18:50.126Z,15.10
2022-10-25T09:21:22.960Z,15.10
2022-10-25T09:23:59.844Z,15.10
2022-10-25T09:26:42.337Z,15.30
2022-10-25T09:29:22.340Z,15.30
2022-10-25T09:31:57.146Z,15.30
2022-10-25T09:34:28.717Z,15.40
2022-10-25T09:37:04.810Z,15.50
2022-10-25T09:39:39.986Z,15.60
2022-10-25T09:42:18.753Z,15.70
2022-10-25T09:44:52.560Z,15.90
2022-10-25T09:47:31.399Z,15.90
2022-10-25T09:50:04.024Z,16.00
2022-10-25T09:52:41.699Z,16.00
2022-10-25T09:55:32.526Z,16.10
2022-10-25T09:58:02.122Z,16.10
2022-10-25T10:00:31.133Z,16.20
2022-10-25T10:03:01.262Z,16.20
2022-10-25T10:05:30.759Z,16.10
2022-10-25T10:08:01.234Z,15.90
2022-10-25T10:10:35.566Z,15.80
2022-10-25T10:13:07.732Z,15.80
2022-10-25T10:15:45.377Z,15.90
2022-10-25T10:18:27.347Z,15.90
2022-10-25T10:21:08.590Z,15.80
2022-10-25T10:23:45.783Z,15.80
2022-10-25T10:26:21.418Z,15.80
2022-10-25T10:28:53.191Z,15.90
2022-10-25T10:31:21.996Z,15.80
2022-10-25T10:33:53.274Z,15.90
2022-10-25T10:36:24.865Z,15.90
2022-10-25T10:38:53.823Z,16.00
2022-10-25T10:41:27.644Z,16.10
2022-10-25T10:44:12.251Z,16.20
2022-10-25T10:46:47.478Z,16.30
2022-10-25T10:49:18.296Z,16.40
2022-10-25T10:51:47.426Z,16.50
2022-10-25T10:54:26.433Z,16.70
2022-10-25T10:57:00.121Z,16.70
2022-10-25T10:59:41.380Z,16.80
2022-10-25T11:02:26.182Z,16.90
2022-10-25T11:04:58.038Z,17.10
2022-10-25T11:07:34.084Z,17.10
2022-10-25T11:10:21.863Z,17.10
2022-10-25T11:13:09.617Z,17.00
2022-10-25T11:16:24.340Z,16.90
2022-10-25T11:19:20.719Z,16.80
2022-10-25T11:22:20.787Z,16.70
2022-10-25T11:24:58.991Z,16.60
2022-10-25T11:27:39.258Z,16.40
2022-10-25T11:30:14.444Z,16.30
2022-10-25T11:33:04.931Z,16.30
2022-10-25T11:35:52.316Z,16.10
2022-10-25T11:38:34.440Z,16.00
2022-10-25T11:41:09.596Z,15.90
2022-10-25T11:43:58.450Z,15.90
2022-10-25T11:46:33.262Z,16.30
2022-10-25T11:49:18.752Z,16.50
2022-10-25T11:52:00.844Z,16.60
2022-10-25T11:54:38.354Z,16.50
2022-10-25T11:57:18.608Z,16.40
2022-10-25T11:59:58.882Z,16.40
2022-10-25T12:02:47.093Z,16.50
2022-10-25T12:05:26.436Z,17.00
2022-10-25T12:08:02.763Z,17.30
2022-10-25T12:10:35.833Z,17.60
2022-10-25T12:13:11.199Z,17.80
2022-10-25T12:15:42.924Z,18.00
2022-10-25T12:18:16.378Z,18.40
2022-10-25T12:20:49.975Z,18.60
2022-10-25T12:23:22.261Z,18.80
2022-10-25T12:25:57.839Z,19.10
2022-10-25T12:28:31.050Z,19.10
2022-10-25T12:31:02.507Z,19.20
2022-10-25T12:33:37.731Z,19.40
2022-10-25T12:36:11.636Z,19.30
2022-10-25T12:38:41.184Z,19.30
2022-10-25T12:41:20.710Z,19.10
2022-10-25T12:44:01.613Z,19.10
2022-10-25T12:46:53.933Z,19.20
2022-10-25T12:49:39.275Z,19.30
2022-10-25T12:52:24.463Z,19.40
2022-10-25T12:55:14.946Z,19.40
2022-10-25T12:57:50.618Z,19.60
2022-10-25T13:03:28.216Z,19.50
2022-10-25T13:06:23.446Z,19.30
2022-10-25T13:08:53.223Z,19.40
2022-10-25T13:11:34.027Z,19.20
2022-10-25T13:14:04.824Z,18.90
2022-10-25T13:16:34.869Z,18.60
2022-10-25T13:19:49.725Z,18.60
2022-10-25T13:22:39.466Z,18.60
2022-10-25T13:25:19.111Z,18.70
2022-10-25T13:28:32.693Z,19.00
2022-10-25T13:31:45.851Z,19.10
2022-10-25T13:34:31.627Z,19.10
2022-10-25T13:37:02.214Z,19.00
2022-10-25T13:39:33.727Z,18.90
2022-10-25T13:42:09.529Z,19.00
2022-10-25T13:44:40.353Z,18.90
2022-10-25T13:47:29.570Z,18.80
2022-10-25T13:49:58.542Z,18.70
2022-10-25T13:52:32.157Z,18.50
2022-10-25T13:55:03.426Z,18.20
2022-10-25T13:57:51.472Z,18.00
2022-10-25T14:00:52.270Z,17.80
2022-10-25T14:03:35.649Z,17.90
2022-10-25T14:06:18.509Z,18.20
2022-10-25T14:08:54.625Z,18.50
2022-10-25T14:11:34.924Z,18.60
2022-10-25T14:14:15.227Z,18.50
2022-10-25T14:16:55.016Z,18.60
2022-10-25T14:19:37.487Z,18.60
2022-10-25T14:22:15.428Z,18.70
2022-10-25T14:24:47.900Z,18.90
2022-10-25T14:27:37.781Z,19.00
2022-10-25T14:30:27.362Z,19.00
2022-10-25T14:32:57.725Z,18.80
2022-10-25T14:35:32.715Z,18.70
2022-10-25T14:38:01.981Z,18.70
2022-10-25T14:40:32.641Z,18.50
2022-10-25T14:43:23.615Z,18.60
2022-10-25T14:46:00.770Z,18.70
2022-10-25T14:48:29.832Z,18.60
2022-10-25T14:51:05.061Z,18.40
2022-10-25T14:53:34.482Z,18.30
2022-10-25T14:56:05.559Z,18.20
2022-10-25T14:58:42.791Z,18.00
2022-10-25T15:01:13.075Z,17.90
2022-10-25T15:03:47.387Z,17.70
2022-10-25T15:06:18.117Z,17.60
2022-10-25T15:08:51.469Z,17.60
2022-10-25T15:11:21.712Z,17.50
2022-10-25T15:13:53.183Z,17.40
2022-10-25T15:16:30.085Z,17.30
2022-10-25T15:19:07.977Z,17.30
2022-10-25T15:21:42.657Z,17.40
2022-10-25T15:24:16.633Z,17.20
2022-10-25T15:26:56.105Z,16.90
2022-10-25T15:32:22.313Z,16.60
2022-10-25T15:34:52.762Z,16.60
2022-10-25T15:37:24.611Z,16.40
2022-10-25T15:39:55.025Z,16.30
2022-10-25T15:42:25.901Z,16.20
2022-10-25T15:44:54.508Z,16.20
2022-10-25T15:47:34.829Z,16.00
2022-10-25T15:50:05.081Z,15.90
2022-10-25T15:52:35.042Z,15.80
2022-10-25T15:55:03.675Z,15.70
2022-10-25T15:57:32.267Z,15.60
2022-10-25T16:00:00.814Z,15.50
2022-10-25T16:02:31.932Z,15.30
2022-10-25T16:05:00.504Z,15.30
2022-10-25T16:07:30.637Z,15.10
2022-10-25T16:10:00.570Z,15.00
2022-10-25T16:12:33.634Z,14.90
2022-10-25T16:15:02.487Z,14.90
2022-10-25T16:17:31.132Z,14.70
2022-10-25T16:19:59.751Z,14.60
2022-10-25T16:22:28.371Z,14.50
2022-10-25T16:24:57.127Z,14.40
2022-10-25T16:27:27.133Z,14.30
2022-10-25T16:29:55.823Z,14.20
2022-10-25T16:32:24.552Z,14.10
2022-10-25T16:34:53.204Z,14.00
2022-10-25T16:37:21.824Z,14.00
2022-10-25T16:39:50.393Z,13.90
2022-10-25T16:42:31.705Z,13.80
2022-10-25T16:45:01.193Z,13.70
2022-10-25T16:47:30.264Z,13.70
2022-10-25T16:49:58.889Z,13.60
2022-10-25T16:52:27.545Z,13.50
2022-10-25T16:54:56.123Z,13.40
2022-10-25T16:57:24.691Z,13.30
2022-10-25T16:59:54.696Z,13.30
2022-10-25T17:02:24.917Z,13.20
2022-10-25T17:04:54.684Z,13.20
2022-10-25T17:07:23.273Z,13.10
2022-10-25T17:09:51.845Z,13.10
2022-10-25T17:12:20.601Z,13.10
2022-10-25T17:14:49.230Z,13.00
2022-10-25T17:17:19.250Z,12.90
2022-10-25T17:19:47.989Z,12.90
2022-10-25T17:22:16.575Z,12.80
2022-10-25T17:24:45.533Z,12.80
2022-10-25T17:27:14.319Z,12.70
2022-10-25T17:29:43.109Z,12.70
2022-10-25T17:32:11.659Z,12.60
2022-10-25T17:34:41.682Z,12.60
2022-10-25T17:37:10.342Z,12.60
2022-10-25T17:39:38.978Z,12.50
2022-10-25T17:42:07.666Z,12.50
2022-10-25T17:44:36.344Z,12.40
2022-10-25T17:47:05.243Z,12.40
2022-10-25T17:49:34.243Z,12.40
2022-10-25T17:52:04.245Z,12.40
2022-10-25T17:54:32.884Z,12.30
2022-10-25T17:57:02.994Z,12.30
2022-10-25T17:59:31.676Z,12.20
2022-10-25T18:02:00.730Z,12.20
2022-10-25T18:04:41.785Z,12.10
2022-10-25T18:07:19.466Z,12.10
2022-10-25T18:09:48.110Z,12.00
2022-10-25T18:12:16.868Z,12.00
2022-10-25T18:14:46.031Z,11.90
2022-10-25T18:17:15.525Z,11.90
2022-10-25T18:19:44.373Z,11.80
2022-10-25T18:22:15.300Z,11.70
2022-10-25T18:24:46.107Z,11.70
2022-10-25T18:27:16.004Z,11.70
2022-10-25T18:29:45.531Z,11.60
2022-10-25T18:32:16.543Z,11.60
2022-10-25T18:34:45.525Z,11.60
2022-10-25T18:37:15.416Z,11.60
2022-10-25T18:39:47.091Z,11.50
2022-10-25T18:42:18.427Z,11.60
2022-10-25T18:44:47.068Z,11.50
2022-10-25T18:47:16.387Z,11.50
2022-10-25T18:49:45.668Z,11.50
2022-10-25T18:52:16.609Z,11.40
2022-10-25T18:54:46.521Z,11.50
2022-10-25T18:57:15.819Z,11.40
2022-10-25T18:59:44.571Z,11.50
2022-10-25T19:02:14.091Z,11.50
2022-10-25T19:04:45.236Z,11.40
2022-10-25T19:07:14.353Z,11.40
2022-10-25T19:09:43.197Z,11.30
2022-10-25T19:12:15.066Z,11.30
2022-10-25T19:17:20.120Z,11.20
2022-10-25T19:19:48.754Z,11.20
2022-10-25T19:22:17.484Z,11.20
2022-10-25T19:24:46.223Z,11.20
2022-10-25T19:27:16.355Z,11.10
2022-10-25T19:29:45.785Z,11.10
2022-10-25T19:32:14.529Z,11.00
2022-10-25T19:34:43.453Z,11.00
2022-10-25T19:37:12.083Z,11.00
2022-10-25T19:39:42.443Z,10.90
2022-10-25T19:42:11.502Z,10.90
2022-10-25T19:44:41.426Z,10.90
2022-10-25T19:47:10.028Z,10.90
2022-10-25T19:49:38.543Z,11.00
2022-10-25T19:52:07.127Z,10.90
2022-10-25T19:54:35.654Z,10.90
2022-10-25T19:57:06.234Z,10.90
2022-10-25T19:59:35.197Z,10.80
2022-10-25T20:02:05.434Z,10.70
2022-10-25T20:04:33.937Z,10.70
2022-10-25T20:07:02.596Z,10.60
2022-10-25T20:09:31.184Z,10.60
2022-10-25T20:11:59.791Z,10.60
2022-10-25T20:14:30.766Z,10.60
2022-10-25T20:16:59.318Z,10.50
2022-10-25T20:19:29.357Z,10.40
2022-10-25T20:21:58.191Z,10.40
2022-10-25T20:24:27.229Z,10.30
2022-10-25T20:26:55.888Z,10.30
2022-10-25T20:29:25.525Z,10.30
2022-10-25T20:31:54.463Z,10.20
2022-10-25T20:34:23.372Z,10.30
2022-10-25T20:36:53.400Z,10.20
2022-10-25T20:39:21.915Z,10.20
2022-10-25T20:41:50.580Z,10.10
2022-10-25T20:44:19.163Z,10.00
2022-10-25T20:46:48.055Z,10.00
2022-10-25T20:49:16.798Z,10.00
2022-10-25T20:51:45.885Z,10.00
2022-10-25T20:54:16.094Z,10.00
2022-10-25T20:56:47.453Z,10.00
2022-10-25T20:59:16.186Z,10.00
2022-10-25T21:01:45.753Z,9.90
2022-10-25T21:04:21.813Z,10.00
2022-10-25T21:06:59.077Z,10.00
2022-10-25T21:09:28.992Z,10.00
2022-10-25T21:11:57.735Z,10.10
2022-10-25T21:14:26.345Z,10.00
2022-10-25T21:16:55.030Z,10.00
2022-10-25T21:19:23.696Z,10.00
2022-10-25T21:21:52.303Z,10.00
2022-10-25T21:24:20.911Z,10.00
2022-10-25T21:26:51.584Z,10.00
2022-10-25T21:29:20.189Z,10.00
2022-10-25T21:31:49.613Z,9.90
2022-10-25T21:36:51.713Z,9.90
2022-10-25T21:39:23.949Z,9.90
2022-10-25T21:41:54.321Z,9.80
2022-10-25T21:44:23.340Z,9.70
2022-10-25T21:46:52.031Z,9.70
2022-10-25T21:49:20.595Z,9.70
2022-10-25T21:51:49.253Z,9.70
2022-10-25T21:54:18.121Z,9.70
2022-10-25T21:56:46.631Z,9.70
2022-10-25T21:59:17.169Z,9.70
2022-10-25T22:01:46.427Z,9.70
2022-10-25T22:04:17.568Z,9.70
2022-10-25T22:06:46.122Z,9.70
2022-10-25T22:09:15.424Z,9.70
2022-10-25T22:11:44.310Z,9.70
2022-10-25T22:14:15.349Z,9.60
2022-10-25T22:16:46.101Z,9.60
2022-10-25T22:19:17.495Z,9.50
2022-10-25T22:21:46.565Z,9.40
2022-10-25T22:24:15.845Z,9.50
2022-10-25T22:26:46.493Z,9.50
2022-10-25T22:29:17.743Z,9.60
2022-10-25T22:31:47.781Z,9.50
2022-10-25T22:34:16.327Z,9.50
2022-10-25T22:36:45.449Z,9.50
2022-10-25T22:39:14.226Z,9.40
2022-10-25T22:41:43.549Z,9.40
2022-10-25T22:44:14.626Z,9.40
2022-10-25T22:46:44.019Z,9.40
2022-10-25T22:49:14.143Z,9.40
2022-10-25T22:51:43.019Z,9.40
2022-10-25T22:54:11.624Z,9.30
2022-10-25T22:56:40.199Z,9.40
2022-10-25T22:59:08.811Z,9.30
2022-10-25T23:01:38.652Z,9.20
2022-10-25T23:04:09.719Z,9.10
2022-10-25T23:06:40.725Z,9.20
2022-10-25T23:09:11.065Z,9.10
2022-10-25T23:11:41.585Z,9.00
2022-10-25T23:14:14.885Z,9.00
2022-10-25T23:16:46.323Z,8.90
2022-10-25T23:19:15.620Z,8.90
2022-10-25T23:21:45.959Z,8.90
2022-10-25T23:24:16.433Z,8.90
2022-10-25T23:26:45.488Z,8.90
2022-10-25T23:29:14.128Z,8.70
2022-10-25T23:31:42.797Z,8.70
2022-10-25T23:34:12.934Z,8.60
2022-10-25T23:36:41.686Z,8.70
2022-10-25T23:39:11.666Z,8.60
2022-10-25T23:41:40.292Z,8.60
2022-10-25T23:44:08.942Z,8.60
2022-10-25T23:46:37.552Z,8.60
2022-10-25T23:49:06.167Z,8.60
2022-10-25T23:51:34.770Z,8.60
2022-10-25T23:54:03.441Z,8.60
2022-10-25T23:56:33.488Z,8.60
2022-10-25T23:59:02.201Z,8.60
